JFT38J EDFM-EDBJ
Flight info
| Callsign | JFT38J |
|---|---|
| Flight time | 0h 49m |
| Altitude | 19000 |
| Route | ROLSO3W ROLSO Z56 OSBAN Z12 LASGA DCT ALOSO |
| Aircraft | PC12/L-SDFGRWY/S |
Departure
| Time | 2026-05-03 21:04 |
|---|---|
| Airport | Mannheim-City Airport (EDFM) |
Arrival
| Time | 2026-05-03 21:53 |
|---|---|
| Airport | Jena-Schöngleina Airfield (EDBJ) |
| Time | Latitude | Longitude | Altitude | Speed | Heading |
|---|---|---|---|---|---|
| 2026-05-03 20:30 | 49.47563 | 8.52029 | 314 ft | 0 kts | 183° |
| 2026-05-03 20:57 | 49.47562 | 8.52029 | 314 ft | 0 kts | 182° |
| 2026-05-03 20:57 | 49.47542 | 8.52053 | 314 ft | 8 kts | 98° |
| 2026-05-03 20:58 | 49.47534 | 8.52166 | 315 ft | 10 kts | 135° |
| 2026-05-03 20:58 | 49.47492 | 8.52169 | 314 ft | 6 kts | 184° |
| 2026-05-03 20:58 | 49.47457 | 8.52166 | 315 ft | 9 kts | 183° |
| 2026-05-03 20:58 | 49.47397 | 8.52161 | 315 ft | 0 kts | 184° |
| 2026-05-03 20:59 | 49.47368 | 8.52159 | 315 ft | 5 kts | 184° |
| 2026-05-03 21:00 | 49.47366 | 8.52158 | 315 ft | 0 kts | 184° |
| 2026-05-03 21:00 | 49.47363 | 8.52158 | 315 ft | 2 kts | 184° |
| 2026-05-03 21:00 | 49.47340 | 8.52156 | 314 ft | 0 kts | 183° |
| 2026-05-03 21:01 | 49.47339 | 8.52156 | 314 ft | 0 kts | 183° |
| 2026-05-03 21:01 | 49.47308 | 8.52153 | 313 ft | 5 kts | 184° |
| 2026-05-03 21:01 | 49.47258 | 8.52147 | 312 ft | 6 kts | 191° |
| 2026-05-03 21:02 | 49.47247 | 8.52093 | 312 ft | 5 kts | 272° |
| 2026-05-03 21:02 | 49.47247 | 8.52092 | 312 ft | 0 kts | 272° |
| 2026-05-03 21:02 | 49.47251 | 8.51980 | 313 ft | 31 kts | 273° |
| 2026-05-03 21:02 | 49.47260 | 8.51734 | 309 ft | 0 kts | 274° |
| 2026-05-03 21:03 | 49.47262 | 8.51689 | 308 ft | 20 kts | 271° |
| 2026-05-03 21:03 | 49.47276 | 8.51222 | 310 ft | 67 kts | 273° |
| 2026-05-03 21:03 | 49.47303 | 8.50376 | 359 ft | 89 kts | 274° |
| 2026-05-03 21:04 | 49.47343 | 8.49352 | 520 ft | 97 kts | 274° |
| 2026-05-03 21:04 | 49.47414 | 8.48289 | 794 ft | 102 kts | 274° |
| 2026-05-03 21:04 | 49.47303 | 8.47306 | 1148 ft | 92 kts | 236° |
| 2026-05-03 21:04 | 49.46865 | 8.46691 | 1523 ft | 80 kts | 218° |
| 2026-05-03 21:05 | 49.46576 | 8.46073 | 1891 ft | 66 kts | 246° |
| 2026-05-03 21:05 | 49.46467 | 8.45313 | 2029 ft | 84 kts | 257° |
| 2026-05-03 21:05 | 49.46345 | 8.44309 | 2139 ft | 108 kts | 258° |
| 2026-05-03 21:05 | 49.46195 | 8.43063 | 2294 ft | 126 kts | 258° |
| 2026-05-03 21:06 | 49.46037 | 8.41775 | 2749 ft | 119 kts | 258° |
| 2026-05-03 21:06 | 49.45883 | 8.40552 | 3224 ft | 115 kts | 258° |
| 2026-05-03 21:06 | 49.45694 | 8.39366 | 3582 ft | 115 kts | 245° |
| 2026-05-03 21:06 | 49.45059 | 8.38606 | 3963 ft | 123 kts | 206° |
| 2026-05-03 21:07 | 49.44232 | 8.38240 | 4363 ft | 124 kts | 204° |
| 2026-05-03 21:07 | 49.43419 | 8.37871 | 4895 ft | 120 kts | 204° |
| 2026-05-03 21:07 | 49.42627 | 8.37504 | 5443 ft | 118 kts | 203° |
| 2026-05-03 21:07 | 49.41839 | 8.37138 | 5979 ft | 118 kts | 202° |
| 2026-05-03 21:08 | 49.41047 | 8.36770 | 6494 ft | 119 kts | 201° |
| 2026-05-03 21:08 | 49.40250 | 8.36399 | 6983 ft | 120 kts | 201° |
| 2026-05-03 21:08 | 49.39443 | 8.36024 | 7484 ft | 122 kts | 201° |
| 2026-05-03 21:08 | 49.38629 | 8.35647 | 7998 ft | 123 kts | 201° |
| 2026-05-03 21:09 | 49.37810 | 8.35267 | 8525 ft | 123 kts | 200° |
| 2026-05-03 21:09 | 49.36987 | 8.34886 | 9069 ft | 124 kts | 200° |
| 2026-05-03 21:09 | 49.36129 | 8.34793 | 9603 ft | 132 kts | 168° |
| 2026-05-03 21:09 | 49.35361 | 8.35698 | 10096 ft | 145 kts | 146° |
| 2026-05-03 21:10 | 49.34637 | 8.36799 | 10572 ft | 148 kts | 147° |
| 2026-05-03 21:10 | 49.33894 | 8.37906 | 11047 ft | 150 kts | 147° |
| 2026-05-03 21:10 | 49.33135 | 8.39031 | 11527 ft | 153 kts | 146° |
| 2026-05-03 21:10 | 49.32374 | 8.40157 | 11997 ft | 155 kts | 146° |
| 2026-05-03 21:11 | 49.31604 | 8.41341 | 12456 ft | 161 kts | 135° |
| 2026-05-03 21:11 | 49.31280 | 8.43056 | 12915 ft | 179 kts | 94° |
| 2026-05-03 21:11 | 49.31422 | 8.44986 | 13357 ft | 184 kts | 87° |
| 2026-05-03 21:11 | 49.31599 | 8.46938 | 13829 ft | 185 kts | 88° |
| 2026-05-03 21:12 | 49.31760 | 8.48903 | 14240 ft | 186 kts | 88° |
| 2026-05-03 21:12 | 49.31916 | 8.50878 | 14651 ft | 187 kts | 88° |
| 2026-05-03 21:12 | 49.32074 | 8.52870 | 15057 ft | 189 kts | 88° |
| 2026-05-03 21:12 | 49.32233 | 8.54875 | 15456 ft | 190 kts | 88° |
| 2026-05-03 21:13 | 49.32393 | 8.56893 | 15867 ft | 191 kts | 88° |
| 2026-05-03 21:13 | 49.32553 | 8.58925 | 16278 ft | 192 kts | 88° |
| 2026-05-03 21:13 | 49.32714 | 8.60969 | 16682 ft | 194 kts | 88° |
| 2026-05-03 21:13 | 49.32876 | 8.63026 | 17087 ft | 195 kts | 88° |
| 2026-05-03 21:14 | 49.33038 | 8.65092 | 17486 ft | 196 kts | 88° |
| 2026-05-03 21:14 | 49.33200 | 8.67178 | 17877 ft | 198 kts | 87° |
| 2026-05-03 21:14 | 49.33364 | 8.69279 | 18272 ft | 199 kts | 87° |
| 2026-05-03 21:14 | 49.33526 | 8.71363 | 18623 ft | 200 kts | 88° |
| 2026-05-03 21:15 | 49.33681 | 8.73491 | 18964 ft | 200 kts | 92° |
| 2026-05-03 21:15 | 49.33735 | 8.75706 | 19015 ft | 218 kts | 91° |
| 2026-05-03 21:15 | 49.33825 | 8.78125 | 19025 ft | 235 kts | 91° |
| 2026-05-03 21:15 | 49.33917 | 8.80693 | 19025 ft | 248 kts | 91° |
| 2026-05-03 21:16 | 49.34002 | 8.83389 | 19023 ft | 258 kts | 91° |
| 2026-05-03 21:16 | 49.34089 | 8.86186 | 19024 ft | 267 kts | 91° |
| 2026-05-03 21:16 | 49.34180 | 8.89070 | 19023 ft | 274 kts | 91° |
| 2026-05-03 21:16 | 49.34274 | 8.92013 | 19021 ft | 279 kts | 90° |
| 2026-05-03 21:17 | 49.34367 | 8.95004 | 19008 ft | 283 kts | 90° |
| 2026-05-03 21:17 | 49.34429 | 8.97005 | 19009 ft | 284 kts | 90° |
| 2026-05-03 21:17 | 49.34553 | 9.01039 | 19010 ft | 287 kts | 90° |
| 2026-05-03 21:17 | 49.34646 | 9.04099 | 19007 ft | 288 kts | 90° |
| 2026-05-03 21:18 | 49.34738 | 9.07170 | 19009 ft | 288 kts | 90° |
| 2026-05-03 21:18 | 49.34830 | 9.10246 | 19006 ft | 288 kts | 90° |
| 2026-05-03 21:18 | 49.34921 | 9.13323 | 19016 ft | 289 kts | 90° |
| 2026-05-03 21:18 | 49.35012 | 9.16404 | 19015 ft | 289 kts | 90° |
| 2026-05-03 21:19 | 49.35101 | 9.19487 | 19015 ft | 290 kts | 90° |
| 2026-05-03 21:19 | 49.35190 | 9.22580 | 19013 ft | 290 kts | 90° |
| 2026-05-03 21:19 | 49.35287 | 9.25677 | 19015 ft | 291 kts | 88° |
| 2026-05-03 21:19 | 49.35813 | 9.28673 | 19016 ft | 294 kts | 65° |
| 2026-05-03 21:20 | 49.37008 | 9.31203 | 19023 ft | 295 kts | 43° |
| 2026-05-03 21:20 | 49.38700 | 9.32940 | 19032 ft | 292 kts | 25° |
| 2026-05-03 21:20 | 49.40516 | 9.34274 | 19030 ft | 293 kts | 23° |
| 2026-05-03 21:20 | 49.42367 | 9.35597 | 19025 ft | 294 kts | 23° |
| 2026-05-03 21:21 | 49.44213 | 9.36943 | 19025 ft | 293 kts | 24° |
| 2026-05-03 21:21 | 49.45873 | 9.38754 | 19019 ft | 295 kts | 46° |
| 2026-05-03 21:21 | 49.47168 | 9.41181 | 19018 ft | 294 kts | 52° |
| 2026-05-03 21:21 | 49.48410 | 9.43685 | 19007 ft | 294 kts | 53° |
| 2026-05-03 21:22 | 49.49656 | 9.46181 | 19011 ft | 294 kts | 52° |
| 2026-05-03 21:22 | 49.50915 | 9.48662 | 19008 ft | 294 kts | 52° |
| 2026-05-03 21:22 | 49.52176 | 9.51146 | 19007 ft | 294 kts | 52° |
| 2026-05-03 21:22 | 49.53434 | 9.53642 | 19013 ft | 295 kts | 53° |
| 2026-05-03 21:23 | 49.54533 | 9.56280 | 19004 ft | 291 kts | 74° |
| 2026-05-03 21:23 | 49.53999 | 9.58945 | 17738 ft | 270 kts | 158° |
| 2026-05-03 21:23 | 49.53546 | 9.57110 | 12771 ft | 410 kts | 313° |
| 2026-05-03 21:23 | 49.55512 | 9.54723 | 14219 ft | 305 kts | 328° |
| 2026-05-03 21:24 | 49.57318 | 9.54486 | 16526 ft | 226 kts | 3° |
| 2026-05-03 21:24 | 49.58613 | 9.55307 | 17877 ft | 186 kts | 40° |
| 2026-05-03 21:24 | 49.59278 | 9.56807 | 18694 ft | 159 kts | 63° |
| 2026-05-03 21:24 | 49.59926 | 9.58149 | 19005 ft | 169 kts | 51° |
| 2026-05-03 21:25 | 49.60742 | 9.59705 | 19042 ft | 198 kts | 54° |
| 2026-05-03 21:25 | 49.61602 | 9.61492 | 19054 ft | 221 kts | 56° |
| 2026-05-03 21:25 | 49.62544 | 9.63498 | 19063 ft | 239 kts | 56° |
| 2026-05-03 21:25 | 49.63555 | 9.65633 | 19066 ft | 254 kts | 55° |
| 2026-05-03 21:26 | 49.64628 | 9.67885 | 19065 ft | 265 kts | 55° |
| 2026-05-03 21:26 | 49.65734 | 9.70212 | 19061 ft | 273 kts | 55° |
| 2026-05-03 21:26 | 49.66870 | 9.72609 | 19060 ft | 279 kts | 55° |
| 2026-05-03 21:26 | 49.68023 | 9.75045 | 19060 ft | 283 kts | 55° |
| 2026-05-03 21:27 | 49.69190 | 9.77511 | 19061 ft | 286 kts | 55° |
| 2026-05-03 21:27 | 49.70368 | 9.80001 | 19059 ft | 288 kts | 55° |
| 2026-05-03 21:27 | 49.71551 | 9.82507 | 19057 ft | 289 kts | 55° |
| 2026-05-03 21:27 | 49.72739 | 9.85024 | 19058 ft | 290 kts | 55° |
| 2026-05-03 21:28 | 49.73930 | 9.87550 | 19053 ft | 291 kts | 55° |
| 2026-05-03 21:28 | 49.75124 | 9.90086 | 19052 ft | 292 kts | 55° |
| 2026-05-03 21:28 | 49.76321 | 9.92631 | 19053 ft | 293 kts | 55° |
| 2026-05-03 21:28 | 49.77524 | 9.95189 | 19053 ft | 294 kts | 55° |
| 2026-05-03 21:29 | 49.78728 | 9.97754 | 19053 ft | 295 kts | 55° |
| 2026-05-03 21:29 | 49.79938 | 10.00334 | 19039 ft | 296 kts | 55° |
| 2026-05-03 21:29 | 49.81153 | 10.02925 | 19033 ft | 297 kts | 55° |
| 2026-05-03 21:29 | 49.82367 | 10.05519 | 19034 ft | 298 kts | 55° |
| 2026-05-03 21:30 | 49.83588 | 10.08129 | 19036 ft | 298 kts | 55° |
| 2026-05-03 21:30 | 49.84787 | 10.10696 | 19036 ft | 299 kts | 55° |
| 2026-05-03 21:30 | 49.86006 | 10.13306 | 19036 ft | 299 kts | 55° |
| 2026-05-03 21:30 | 49.87226 | 10.15922 | 19035 ft | 299 kts | 55° |
| 2026-05-03 21:31 | 49.88445 | 10.18537 | 19032 ft | 299 kts | 55° |
| 2026-05-03 21:31 | 49.89662 | 10.21151 | 19033 ft | 299 kts | 55° |
| 2026-05-03 21:31 | 49.90877 | 10.23765 | 19029 ft | 298 kts | 55° |
| 2026-05-03 21:31 | 49.92094 | 10.26386 | 19029 ft | 298 kts | 55° |
| 2026-05-03 21:32 | 49.93309 | 10.29003 | 19026 ft | 298 kts | 55° |
| 2026-05-03 21:32 | 49.94522 | 10.31619 | 19026 ft | 299 kts | 55° |
| 2026-05-03 21:32 | 49.95736 | 10.34241 | 19027 ft | 299 kts | 55° |
| 2026-05-03 21:32 | 49.96953 | 10.36871 | 19033 ft | 300 kts | 55° |
| 2026-05-03 21:33 | 49.98176 | 10.39516 | 19033 ft | 301 kts | 55° |
| 2026-05-03 21:33 | 49.99380 | 10.42124 | 19033 ft | 301 kts | 55° |
| 2026-05-03 21:33 | 50.00600 | 10.44768 | 19033 ft | 301 kts | 55° |
| 2026-05-03 21:33 | 50.01822 | 10.47421 | 19033 ft | 301 kts | 55° |
| 2026-05-03 21:34 | 50.03041 | 10.50069 | 19030 ft | 301 kts | 55° |
| 2026-05-03 21:34 | 50.04261 | 10.52720 | 19030 ft | 301 kts | 55° |
| 2026-05-03 21:34 | 50.05479 | 10.55372 | 19016 ft | 301 kts | 54° |
| 2026-05-03 21:34 | 50.06696 | 10.58017 | 19015 ft | 301 kts | 55° |
| 2026-05-03 21:35 | 50.07900 | 10.60647 | 19021 ft | 301 kts | 55° |
| 2026-05-03 21:35 | 50.09113 | 10.63298 | 19020 ft | 301 kts | 55° |
| 2026-05-03 21:35 | 50.10326 | 10.65948 | 19020 ft | 300 kts | 55° |
| 2026-05-03 21:35 | 50.11539 | 10.68600 | 19020 ft | 300 kts | 55° |
| 2026-05-03 21:36 | 50.12750 | 10.71250 | 19017 ft | 300 kts | 55° |
| 2026-05-03 21:36 | 50.13958 | 10.73899 | 19020 ft | 300 kts | 55° |
| 2026-05-03 21:36 | 50.15168 | 10.76554 | 19033 ft | 300 kts | 55° |
| 2026-05-03 21:36 | 50.16363 | 10.79179 | 18982 ft | 289 kts | 55° |
| 2026-05-03 21:37 | 50.17507 | 10.81691 | 18977 ft | 280 kts | 55° |
| 2026-05-03 21:37 | 50.18625 | 10.84147 | 18809 ft | 280 kts | 55° |
| 2026-05-03 21:37 | 50.19770 | 10.86671 | 18417 ft | 289 kts | 55° |
| 2026-05-03 21:37 | 50.20949 | 10.89271 | 17981 ft | 299 kts | 55° |
| 2026-05-03 21:38 | 50.22170 | 10.91967 | 17531 ft | 307 kts | 55° |
| 2026-05-03 21:38 | 50.23417 | 10.94724 | 17088 ft | 313 kts | 55° |
| 2026-05-03 21:38 | 50.24682 | 10.97522 | 16651 ft | 317 kts | 56° |
| 2026-05-03 21:38 | 50.25961 | 11.00354 | 16208 ft | 320 kts | 56° |
| 2026-05-03 21:39 | 50.27248 | 11.03206 | 15781 ft | 321 kts | 56° |
| 2026-05-03 21:39 | 50.28519 | 11.06026 | 15370 ft | 322 kts | 56° |
| 2026-05-03 21:39 | 50.29811 | 11.08894 | 14952 ft | 324 kts | 56° |
| 2026-05-03 21:39 | 50.31112 | 11.11786 | 14536 ft | 327 kts | 57° |
| 2026-05-03 21:40 | 50.32422 | 11.14702 | 14132 ft | 325 kts | 56° |
| 2026-05-03 21:40 | 50.33722 | 11.17588 | 13721 ft | 323 kts | 57° |
| 2026-05-03 21:40 | 50.35010 | 11.20461 | 13274 ft | 322 kts | 57° |
| 2026-05-03 21:40 | 50.36378 | 11.23217 | 12824 ft | 320 kts | 45° |
| 2026-05-03 21:41 | 50.38035 | 11.25511 | 12384 ft | 317 kts | 40° |
| 2026-05-03 21:41 | 50.39715 | 11.27744 | 11951 ft | 316 kts | 41° |
| 2026-05-03 21:41 | 50.41377 | 11.29978 | 11525 ft | 314 kts | 41° |
| 2026-05-03 21:41 | 50.43018 | 11.32217 | 11101 ft | 312 kts | 41° |
| 2026-05-03 21:42 | 50.44654 | 11.34448 | 10681 ft | 310 kts | 41° |
| 2026-05-03 21:42 | 50.46286 | 11.36663 | 10275 ft | 309 kts | 41° |
| 2026-05-03 21:42 | 50.47903 | 11.38858 | 9999 ft | 304 kts | 41° |
| 2026-05-03 21:42 | 50.49463 | 11.40983 | 9998 ft | 291 kts | 42° |
| 2026-05-03 21:43 | 50.50973 | 11.43041 | 9989 ft | 284 kts | 42° |
| 2026-05-03 21:43 | 50.52457 | 11.45064 | 9985 ft | 280 kts | 42° |
| 2026-05-03 21:43 | 50.53931 | 11.47077 | 9755 ft | 285 kts | 42° |
| 2026-05-03 21:43 | 50.55408 | 11.49099 | 9317 ft | 284 kts | 42° |
| 2026-05-03 21:44 | 50.56895 | 11.51135 | 8876 ft | 283 kts | 41° |
| 2026-05-03 21:44 | 50.58419 | 11.53051 | 8429 ft | 278 kts | 34° |
| 2026-05-03 21:44 | 50.60044 | 11.54657 | 8123 ft | 272 kts | 29° |
| 2026-05-03 21:44 | 50.61638 | 11.55984 | 7998 ft | 249 kts | 26° |
| 2026-05-03 21:45 | 50.63175 | 11.57203 | 7978 ft | 245 kts | 25° |
| 2026-05-03 21:45 | 50.64698 | 11.58391 | 7927 ft | 244 kts | 25° |
| 2026-05-03 21:45 | 50.66234 | 11.59516 | 7753 ft | 240 kts | 24° |
| 2026-05-03 21:45 | 50.67704 | 11.60596 | 7458 ft | 226 kts | 24° |
| 2026-05-03 21:46 | 50.68638 | 11.61262 | 7280 ft | 218 kts | 22° |
| 2026-05-03 21:46 | 50.69995 | 11.62184 | 7065 ft | 208 kts | 23° |
| 2026-05-03 21:46 | 50.71279 | 11.63118 | 6757 ft | 202 kts | 24° |
| 2026-05-03 21:46 | 50.72529 | 11.64063 | 6496 ft | 197 kts | 23° |
| 2026-05-03 21:47 | 50.73795 | 11.64965 | 6334 ft | 201 kts | 24° |
| 2026-05-03 21:47 | 50.75056 | 11.65934 | 6187 ft | 199 kts | 22° |
| 2026-05-03 21:47 | 50.76300 | 11.66775 | 5927 ft | 191 kts | 21° |
| 2026-05-03 21:47 | 50.77500 | 11.67581 | 5696 ft | 184 kts | 19° |
| 2026-05-03 21:48 | 50.78671 | 11.68316 | 5427 ft | 180 kts | 18° |
| 2026-05-03 21:48 | 50.79827 | 11.69033 | 5125 ft | 178 kts | 18° |
| 2026-05-03 21:48 | 50.80991 | 11.69711 | 4794 ft | 176 kts | 14° |
| 2026-05-03 21:48 | 50.82123 | 11.70319 | 4492 ft | 174 kts | 15° |
| 2026-05-03 21:49 | 50.83253 | 11.70991 | 4190 ft | 173 kts | 16° |
| 2026-05-03 21:49 | 50.84368 | 11.71662 | 3901 ft | 170 kts | 15° |
| 2026-05-03 21:49 | 50.85459 | 11.72303 | 3652 ft | 165 kts | 14° |
| 2026-05-03 21:49 | 50.86522 | 11.72961 | 3451 ft | 162 kts | 17° |
| 2026-05-03 21:50 | 50.87558 | 11.73644 | 3236 ft | 160 kts | 16° |
| 2026-05-03 21:50 | 50.88559 | 11.74328 | 3118 ft | 152 kts | 18° |
| 2026-05-03 21:50 | 50.89488 | 11.75001 | 2969 ft | 144 kts | 18° |
| 2026-05-03 21:50 | 50.90384 | 11.75650 | 2817 ft | 139 kts | 18° |
| 2026-05-03 21:51 | 50.91274 | 11.76311 | 2686 ft | 145 kts | 19° |
| 2026-05-03 21:51 | 50.92219 | 11.76880 | 2597 ft | 141 kts | 358° |
| 2026-05-03 21:51 | 50.93108 | 11.76559 | 2357 ft | 127 kts | 320° |
| 2026-05-03 21:51 | 50.93561 | 11.75532 | 2156 ft | 103 kts | 274° |
| 2026-05-03 21:52 | 50.93564 | 11.74505 | 1913 ft | 88 kts | 266° |
| 2026-05-03 21:52 | 50.93504 | 11.73558 | 1766 ft | 87 kts | 250° |
| 2026-05-03 21:52 | 50.93224 | 11.72693 | 1610 ft | 91 kts | 232° |
| 2026-05-03 21:52 | 50.92716 | 11.72108 | 1433 ft | 92 kts | 201° |
| 2026-05-03 21:53 | 50.92119 | 11.71764 | 1269 ft | 88 kts | 201° |
| 2026-05-03 21:53 | 50.91615 | 11.71462 | 1229 ft | 63 kts | 200° |
| 2026-05-03 21:53 | 50.91462 | 11.71366 | 1230 ft | 5 kts | 202° |
| 2026-05-03 21:53 | 50.91389 | 11.71320 | 1231 ft | 14 kts | 199° |
| 2026-05-03 21:54 | 50.91340 | 11.71337 | 1232 ft | 0 kts | 116° |
| 2026-05-03 21:54 | 50.91334 | 11.71389 | 1231 ft | 10 kts | 70° |
| 2026-05-03 21:54 | 50.91383 | 11.71512 | 1231 ft | 16 kts | 56° |
| 2026-05-03 21:54 | 50.91409 | 11.71615 | 1231 ft | 1 kts | 114° |